sensor_id;sensor_type;location;lat;lon;timestamp;P1;durP1;ratioP1;P2;durP2;ratioP2
71821;SDS011;64096;52.548;13.406;2023-04-06T06:03:32;9.43;;;6.05;;
71821;SDS011;64096;52.548;13.406;2023-04-06T06:06:02;11.43;;;6.43;;
71821;SDS011;64096;52.548;13.406;2023-04-06T06:08:28;8.68;;;5.88;;
71821;SDS011;64096;52.548;13.406;2023-04-06T06:10:55;9.43;;;4.90;;
71821;SDS011;64096;52.548;13.406;2023-04-06T06:13:21;8.57;;;5.03;;
71821;SDS011;64096;52.548;13.406;2023-04-06T06:15:48;9.20;;;5.40;;
71821;SDS011;64096;52.548;13.406;2023-04-06T06:18:15;7.50;;;5.22;;
71821;SDS011;64096;52.548;13.406;2023-04-06T06:20:41;8.75;;;5.20;;
71821;SDS011;64096;52.548;13.406;2023-04-06T06:23:07;7.25;;;4.63;;
71821;SDS011;64096;52.548;13.406;2023-04-06T06:25:33;8.05;;;5.00;;
71821;SDS011;64096;52.548;13.406;2023-04-06T06:27:59;7.90;;;5.45;;
71821;SDS011;64096;52.548;13.406;2023-04-06T06:30:26;7.57;;;5.25;;
71821;SDS011;64096;52.548;13.406;2023-04-06T06:32:52;7.95;;;5.43;;
71821;SDS011;64096;52.548;13.406;2023-04-06T06:35:18;8.15;;;5.32;;
71821;SDS011;64096;52.548;13.406;2023-04-06T06:37:44;8.18;;;4.68;;
71821;SDS011;64096;52.548;13.406;2023-04-06T06:40:10;7.10;;;4.57;;
71821;SDS011;64096;52.548;13.406;2023-04-06T06:42:38;6.22;;;4.50;;
71821;SDS011;64096;52.548;13.406;2023-04-06T06:45:05;7.28;;;4.78;;
71821;SDS011;64096;52.548;13.406;2023-04-06T06:47:31;9.43;;;4.68;;
71821;SDS011;64096;52.548;13.406;2023-04-06T06:49:58;6.97;;;4.50;;
71821;SDS011;64096;52.548;13.406;2023-04-06T06:52:24;6.32;;;4.30;;
71821;SDS011;64096;52.548;13.406;2023-04-06T06:54:50;6.03;;;3.80;;
71821;SDS011;64096;52.548;13.406;2023-04-06T06:57:17;8.02;;;4.65;;
71821;SDS011;64096;52.548;13.406;2023-04-06T06:59:43;6.20;;;3.88;;
71821;SDS011;64096;52.548;13.406;2023-04-06T07:02:09;6.47;;;4.30;;
71821;SDS011;64096;52.548;13.406;2023-04-06T07:04:35;6.20;;;4.25;;
71821;SDS011;64096;52.548;13.406;2023-04-06T07:07:01;6.68;;;4.30;;
71821;SDS011;64096;52.548;13.406;2023-04-06T07:09:28;6.93;;;4.32;;
71821;SDS011;64096;52.548;13.406;2023-04-06T07:11:54;6.68;;;3.92;;
71821;SDS011;64096;52.548;13.406;2023-04-06T07:14:21;6.13;;;3.92;;
71821;SDS011;64096;52.548;13.406;2023-04-06T07:16:47;6.50;;;3.85;;
71821;SDS011;64096;52.548;13.406;2023-04-06T07:19:15;6.95;;;4.45;;
71821;SDS011;64096;52.548;13.406;2023-04-06T07:21:41;10.02;;;7.00;;
71821;SDS011;64096;52.548;13.406;2023-04-06T07:24:07;7.28;;;4.63;;
71821;SDS011;64096;52.548;13.406;2023-04-06T07:26:33;7.40;;;3.97;;
71821;SDS011;64096;52.548;13.406;2023-04-06T07:28:59;7.32;;;3.95;;
71821;SDS011;64096;52.548;13.406;2023-04-06T07:31:25;5.90;;;3.92;;
71821;SDS011;64096;52.548;13.406;2023-04-06T07:33:51;5.78;;;3.80;;
71821;SDS011;64096;52.548;13.406;2023-04-06T07:36:17;5.93;;;3.42;;
71821;SDS011;64096;52.548;13.406;2023-04-06T07:38:43;8.70;;;4.00;;
71821;SDS011;64096;52.548;13.406;2023-04-06T07:41:11;6.05;;;3.58;;
71821;SDS011;64096;52.548;13.406;2023-04-06T07:43:37;5.40;;;3.55;;
71821;SDS011;64096;52.548;13.406;2023-04-06T07:46:03;5.28;;;3.15;;
71821;SDS011;64096;52.548;13.406;2023-04-06T07:48:29;7.07;;;4.28;;
71821;SDS011;64096;52.548;13.406;2023-04-06T07:51:02;7.75;;;4.15;;
71821;SDS011;64096;52.548;13.406;2023-04-06T07:53:28;5.25;;;3.25;;
71821;SDS011;64096;52.548;13.406;2023-04-06T07:55:54;5.18;;;3.10;;
71821;SDS011;64096;52.548;13.406;2023-04-06T07:58:20;7.18;;;3.70;;
71821;SDS011;64096;52.548;13.406;2023-04-06T08:00:47;7.18;;;3.53;;
71821;SDS011;64096;52.548;13.406;2023-04-06T08:03:13;5.40;;;3.67;;
71821;SDS011;64096;52.548;13.406;2023-04-06T08:05:39;6.97;;;3.30;;
71821;SDS011;64096;52.548;13.406;2023-04-06T08:08:05;4.80;;;2.97;;
71821;SDS011;64096;52.548;13.406;2023-04-06T08:10:31;5.63;;;3.22;;
71821;SDS011;64096;52.548;13.406;2023-04-06T08:12:59;4.65;;;2.90;;
71821;SDS011;64096;52.548;13.406;2023-04-06T08:15:25;5.13;;;3.25;;
71821;SDS011;64096;52.548;13.406;2023-04-06T08:17:51;5.32;;;3.20;;
71821;SDS011;64096;52.548;13.406;2023-04-06T08:20:17;4.40;;;2.80;;
71821;SDS011;64096;52.548;13.406;2023-04-06T08:22:44;5.85;;;3.00;;
71821;SDS011;64096;52.548;13.406;2023-04-06T08:25:10;5.05;;;2.78;;
71821;SDS011;64096;52.548;13.406;2023-04-06T08:27:36;5.25;;;2.75;;
71821;SDS011;64096;52.548;13.406;2023-04-06T08:30:02;5.15;;;3.03;;
71821;SDS011;64096;52.548;13.406;2023-04-06T08:32:28;5.65;;;3.00;;
71821;SDS011;64096;52.548;13.406;2023-04-06T08:34:54;5.53;;;2.47;;
71821;SDS011;64096;52.548;13.406;2023-04-06T08:37:21;5.45;;;2.65;;
71821;SDS011;64096;52.548;13.406;2023-04-06T08:39:47;3.92;;;2.15;;
71821;SDS011;64096;52.548;13.406;2023-04-06T08:42:20;8.23;;;5.13;;
71821;SDS011;64096;52.548;13.406;2023-04-06T08:44:46;4.72;;;2.47;;
71821;SDS011;64096;52.548;13.406;2023-04-06T08:47:12;3.53;;;2.00;;
71821;SDS011;64096;52.548;13.406;2023-04-06T08:49:39;5.32;;;2.28;;
71821;SDS011;64096;52.548;13.406;2023-04-06T08:52:06;5.82;;;2.40;;
71821;SDS011;64096;52.548;13.406;2023-04-06T08:54:35;4.18;;;2.33;;
71821;SDS011;64096;52.548;13.406;2023-04-06T08:57:02;3.95;;;2.20;;
71821;SDS011;64096;52.548;13.406;2023-04-06T08:59:28;4.05;;;2.05;;
71821;SDS011;64096;52.548;13.406;2023-04-06T09:01:55;4.30;;;2.13;;
71821;SDS011;64096;52.548;13.406;2023-04-06T09:04:21;5.28;;;2.67;;
71821;SDS011;64096;52.548;13.406;2023-04-06T09:06:49;6.28;;;1.90;;
71821;SDS011;64096;52.548;13.406;2023-04-06T09:09:15;3.33;;;1.70;;
71821;SDS011;64096;52.548;13.406;2023-04-06T09:11:42;5.15;;;2.30;;
71821;SDS011;64096;52.548;13.406;2023-04-06T09:14:09;3.20;;;1.80;;
71821;SDS011;64096;52.548;13.406;2023-04-06T09:16:39;3.72;;;2.00;;
71821;SDS011;64096;52.548;13.406;2023-04-06T09:19:09;3.13;;;1.67;;
71821;SDS011;64096;52.548;13.406;2023-04-06T09:21:35;3.78;;;1.85;;
71821;SDS011;64096;52.548;13.406;2023-04-06T09:24:05;3.55;;;1.70;;
71821;SDS011;64096;52.548;13.406;2023-04-06T09:26:32;4.00;;;2.08;;
71821;SDS011;64096;52.548;13.406;2023-04-06T09:28:58;10.48;;;7.95;;
71821;SDS011;64096;52.548;13.406;2023-04-06T09:31:29;3.60;;;2.13;;
71821;SDS011;64096;52.548;13.406;2023-04-06T09:33:55;3.25;;;2.13;;
71821;SDS011;64096;52.548;13.406;2023-04-06T09:36:31;3.60;;;1.80;;
71821;SDS011;64096;52.548;13.406;2023-04-06T09:38:58;3.25;;;1.90;;
71821;SDS011;64096;52.548;13.406;2023-04-06T09:41:25;2.50;;;1.63;;
71821;SDS011;64096;52.548;13.406;2023-04-06T09:43:52;2.78;;;1.50;;
71821;SDS011;64096;52.548;13.406;2023-04-06T09:46:18;2.80;;;1.45;;
71821;SDS011;64096;52.548;13.406;2023-04-06T09:48:47;2.72;;;1.48;;
71821;SDS011;64096;52.548;13.406;2023-04-06T09:51:15;3.40;;;1.45;;
71821;SDS011;64096;52.548;13.406;2023-04-06T09:53:42;3.38;;;1.65;;
71821;SDS011;64096;52.548;13.406;2023-04-06T09:56:11;2.95;;;1.38;;
71821;SDS011;64096;52.548;13.406;2023-04-06T09:58:38;2.85;;;1.52;;
71821;SDS011;64096;52.548;13.406;2023-04-06T10:01:18;2.58;;;1.50;;
71821;SDS011;64096;52.548;13.406;2023-04-06T10:06:31;2.22;;;1.40;;
71821;SDS011;64096;52.548;13.406;2023-04-06T10:09:00;2.53;;;1.40;;
71821;SDS011;64096;52.548;13.406;2023-04-06T10:11:27;2.55;;;1.27;;
71821;SDS011;64096;52.548;13.406;2023-04-06T10:13:53;2.97;;;1.30;;
71821;SDS011;64096;52.548;13.406;2023-04-06T10:16:20;2.13;;;1.20;;
71821;SDS011;64096;52.548;13.406;2023-04-06T10:18:48;2.35;;;1.20;;
71821;SDS011;64096;52.548;13.406;2023-04-06T10:21:16;2.85;;;1.40;;
71821;SDS011;64096;52.548;13.406;2023-04-06T10:23:49;3.10;;;1.50;;
71821;SDS011;64096;52.548;13.406;2023-04-06T10:26:17;2.75;;;1.50;;
71821;SDS011;64096;52.548;13.406;2023-04-06T10:28:45;3.08;;;1.52;;
71821;SDS011;64096;52.548;13.406;2023-04-06T10:31:12;2.38;;;1.30;;
71821;SDS011;64096;52.548;13.406;2023-04-06T10:33:38;2.75;;;1.30;;
71821;SDS011;64096;52.548;13.406;2023-04-06T10:36:21;2.70;;;1.20;;
71821;SDS011;64096;52.548;13.406;2023-04-06T10:38:53;3.58;;;1.80;;
71821;SDS011;64096;52.548;13.406;2023-04-06T10:41:20;8.82;;;1.90;;
71821;SDS011;64096;52.548;13.406;2023-04-06T10:43:54;3.25;;;1.80;;
71821;SDS011;64096;52.548;13.406;2023-04-06T10:46:24;2.70;;;1.50;;
71821;SDS011;64096;52.548;13.406;2023-04-06T10:48:51;2.53;;;1.40;;
71821;SDS011;64096;52.548;13.406;2023-04-06T10:51:17;2.05;;;1.17;;
71821;SDS011;64096;52.548;13.406;2023-04-06T10:53:47;3.40;;;1.70;;
71821;SDS011;64096;52.548;13.406;2023-04-06T10:56:14;3.78;;;2.03;;
71821;SDS011;64096;52.548;13.406;2023-04-06T10:58:47;2.90;;;1.52;;
71821;SDS011;64096;52.548;13.406;2023-04-06T11:01:14;2.28;;;1.40;;
71821;SDS011;64096;52.548;13.406;2023-04-06T11:03:48;3.03;;;1.40;;
71821;SDS011;64096;52.548;13.406;2023-04-06T11:06:21;3.10;;;1.30;;
71821;SDS011;64096;52.548;13.406;2023-04-06T11:08:47;1.90;;;1.30;;
71821;SDS011;64096;52.548;13.406;2023-04-06T11:11:14;2.13;;;1.20;;
71821;SDS011;64096;52.548;13.406;2023-04-06T11:13:48;2.78;;;1.35;;
71821;SDS011;64096;52.548;13.406;2023-04-06T11:16:19;2.28;;;1.33;;
71821;SDS011;64096;52.548;13.406;2023-04-06T11:18:58;2.10;;;1.27;;
71821;SDS011;64096;52.548;13.406;2023-04-06T11:21:32;2.55;;;1.40;;
71821;SDS011;64096;52.548;13.406;2023-04-06T11:24:05;3.65;;;1.20;;
71821;SDS011;64096;52.548;13.406;2023-04-06T11:26:36;3.33;;;1.55;;
71821;SDS011;64096;52.548;13.406;2023-04-06T11:29:02;2.67;;;1.58;;
71821;SDS011;64096;52.548;13.406;2023-04-06T11:31:28;3.17;;;1.38;;
71821;SDS011;64096;52.548;13.406;2023-04-06T11:33:57;2.92;;;1.50;;
71821;SDS011;64096;52.548;13.406;2023-04-06T11:36:23;2.47;;;1.20;;
71821;SDS011;64096;52.548;13.406;2023-04-06T11:38:49;2.38;;;1.20;;
71821;SDS011;64096;52.548;13.406;2023-04-06T11:41:16;5.53;;;3.13;;
71821;SDS011;64096;52.548;13.406;2023-04-06T11:43:46;3.50;;;1.80;;
71821;SDS011;64096;52.548;13.406;2023-04-06T11:46:16;3.00;;;1.48;;
71821;SDS011;64096;52.548;13.406;2023-04-06T11:48:44;3.83;;;1.52;;
71821;SDS011;64096;52.548;13.406;2023-04-06T11:51:10;3.13;;;1.63;;
71821;SDS011;64096;52.548;13.406;2023-04-06T11:53:43;3.45;;;1.45;;
71821;SDS011;64096;52.548;13.406;2023-04-06T11:56:10;2.67;;;1.20;;
71821;SDS011;64096;52.548;13.406;2023-04-06T11:58:36;2.67;;;1.40;;
71821;SDS011;64096;52.548;13.406;2023-04-06T12:01:03;2.88;;;1.42;;
71821;SDS011;64096;52.548;13.406;2023-04-06T12:03:29;3.22;;;1.45;;
71821;SDS011;64096;52.548;13.406;2023-04-06T12:05:56;3.85;;;1.90;;
71821;SDS011;64096;52.548;13.406;2023-04-06T12:08:22;2.63;;;1.60;;
71821;SDS011;64096;52.548;13.406;2023-04-06T12:10:50;3.95;;;1.83;;
71821;SDS011;64096;52.548;13.406;2023-04-06T12:13:16;2.78;;;1.48;;
71821;SDS011;64096;52.548;13.406;2023-04-06T12:15:42;3.45;;;2.25;;
71821;SDS011;64096;52.548;13.406;2023-04-06T12:18:08;2.78;;;1.55;;
71821;SDS011;64096;52.548;13.406;2023-04-06T12:20:34;4.00;;;2.08;;
71821;SDS011;64096;52.548;13.406;2023-04-06T12:23:00;3.53;;;1.70;;
71821;SDS011;64096;52.548;13.406;2023-04-06T12:25:26;2.30;;;1.25;;
71821;SDS011;64096;52.548;13.406;2023-04-06T12:27:52;2.88;;;1.70;;
71821;SDS011;64096;52.548;13.406;2023-04-06T12:30:19;2.80;;;1.58;;
71821;SDS011;64096;52.548;13.406;2023-04-06T12:32:45;3.75;;;1.95;;
71821;SDS011;64096;52.548;13.406;2023-04-06T12:35:11;3.65;;;1.60;;
71821;SDS011;64096;52.548;13.406;2023-04-06T12:37:40;3.00;;;1.50;;
71821;SDS011;64096;52.548;13.406;2023-04-06T12:40:07;3.38;;;1.85;;
71821;SDS011;64096;52.548;13.406;2023-04-06T12:42:38;3.00;;;1.50;;
71821;SDS011;64096;52.548;13.406;2023-04-06T12:45:06;2.38;;;1.42;;
71821;SDS011;64096;52.548;13.406;2023-04-06T12:47:32;3.92;;;1.80;;
71821;SDS011;64096;52.548;13.406;2023-04-06T12:49:58;2.38;;;1.33;;
71821;SDS011;64096;52.548;13.406;2023-04-06T12:52:24;3.17;;;1.52;;
71821;SDS011;64096;52.548;13.406;2023-04-06T12:54:51;3.15;;;1.70;;
71821;SDS011;64096;52.548;13.406;2023-04-06T12:57:17;2.80;;;1.48;;
71821;SDS011;64096;52.548;13.406;2023-04-06T12:59:43;2.88;;;1.48;;
71821;SDS011;64096;52.548;13.406;2023-04-06T13:02:10;3.08;;;1.45;;
71821;SDS011;64096;52.548;13.406;2023-04-06T13:04:36;3.50;;;1.50;;
71821;SDS011;64096;52.548;13.406;2023-04-06T13:07:02;3.88;;;1.83;;
71821;SDS011;64096;52.548;13.406;2023-04-06T13:09:28;2.80;;;1.42;;
71821;SDS011;64096;52.548;13.406;2023-04-06T13:11:54;3.45;;;1.60;;
71821;SDS011;64096;52.548;13.406;2023-04-06T13:14:20;4.28;;;2.58;;
71821;SDS011;64096;52.548;13.406;2023-04-06T13:16:46;3.45;;;1.73;;
71821;SDS011;64096;52.548;13.406;2023-04-06T13:19:12;3.50;;;2.03;;
71821;SDS011;64096;52.548;13.406;2023-04-06T13:21:38;3.15;;;1.77;;
71821;SDS011;64096;52.548;13.406;2023-04-06T13:24:10;3.67;;;2.10;;
71821;SDS011;64096;52.548;13.406;2023-04-06T13:26:36;4.82;;;2.22;;
71821;SDS011;64096;52.548;13.406;2023-04-06T13:29:02;3.13;;;1.70;;
71821;SDS011;64096;52.548;13.406;2023-04-06T13:31:28;2.97;;;1.70;;
71821;SDS011;64096;52.548;13.406;2023-04-06T13:33:55;4.20;;;1.90;;
71821;SDS011;64096;52.548;13.406;2023-04-06T13:36:21;4.82;;;2.13;;
71821;SDS011;64096;52.548;13.406;2023-04-06T13:38:47;4.60;;;2.25;;
71821;SDS011;64096;52.548;13.406;2023-04-06T13:41:20;4.72;;;2.22;;
71821;SDS011;64096;52.548;13.406;2023-04-06T13:43:46;3.70;;;1.80;;
71821;SDS011;64096;52.548;13.406;2023-04-06T13:46:12;6.97;;;3.75;;
71821;SDS011;64096;52.548;13.406;2023-04-06T13:48:38;3.75;;;2.00;;
71821;SDS011;64096;52.548;13.406;2023-04-06T13:51:08;3.92;;;1.60;;
71821;SDS011;64096;52.548;13.406;2023-04-06T13:53:34;3.80;;;1.80;;
71821;SDS011;64096;52.548;13.406;2023-04-06T13:56:00;5.82;;;2.70;;
71821;SDS011;64096;52.548;13.406;2023-04-06T13:58:26;3.72;;;1.60;;
